Terminal Aerodrome Forecast
Issued by NWS Cleveland, OH

Home | Current Version | Previous Version | Text Only | Print | Product List | Glossary Off
Versions: 1 2 3 4 5 6 7 8 9 10 11 12 13 14 15

000
FTUS41 KCLE 032300
TAFTOL
TAF
KTOL 032325Z 0400/0424 24015G25KT 4SM BR OVC006
     FM040600 29009KT 6SM BR OVC015
     FM041900 29012KT P6SM OVC050
     FM042200 29012KT P6SM BKN250=

USA.gov is the U.S. government's official web portal to all federal, state and local government web resources and services.